ブラジリア国際空港の過去48時間の天気

ブラジリア国際空港 (Brasilia Aeroporto )

現在時刻: 5/25 23:24 -03 (5/26 02:24 UTC) 以下の時間は現地時間です。

過去48時間のMETAR気象情報
時間 風向 風速(m/s) 視程 気温(℃) 湿度(%) 気圧(hPa) 天気現象
25 23:00 2 10km以上 17 63 1025
25 22:00 不定 1 10km以上 16 45 1025
25 21:00 東南東 3 10km以上 18 60 1025
25 20:00 4 10km以上 18 60 1024
25 19:00 南東 5 10km以上 20 53 1024
25 18:00 東南東 4 10km以上 22 43 1023
25 17:00 東南東 6 10km以上 23 41 1023
25 16:00 東南東 6 10km以上 24 41 1022
25 15:00 南東 6 10km以上 24 41 1022
25 14:00 東南東 6 10km以上 24 38 1023
25 13:00 東南東 5 10km以上 24 41 1024
25 12:00 東南東 7 10km以上 22 50 1025
25 11:00 7 10km以上 21 53 1026
25 10:00 6 10km以上 20 56 1026
25 09:00 7 10km以上 18 64 1026
25 08:00 東北東 1 10km以上 16 72 1026
25 07:00 西 1 10km以上 13 82 1025
25 06:00 不定 1 10km以上 13 82 1024
25 05:00 静穏 0 10km以上 13 82 1023
25 04:00 南東 3 10km以上 15 77 1023
25 03:00 不定 1 10km以上 15 77 1023
25 02:00 不定 1 10km以上 15 82 1024
25 01:00 東南東 3 10km以上 17 72 1024
25 00:00 東南東 4 10km以上 18 68 1024
24 23:00 3 10km以上 18 68 1024
24 22:00 東南東 3 10km以上 19 64 1024
24 21:00 東南東 3 10km以上 20 60 1024
24 20:00 南東 4 10km以上 20 60 1023
24 19:00 東南東 4 10km以上 21 60 1022
24 18:00 東南東 4 10km以上 23 50 1022
24 17:00 南東 5 10km以上 25 44 1021
24 16:00 5 10km以上 26 42 1021
24 15:00 東南東 6 10km以上 25 44 1021
24 14:00 東北東 4 10km以上 26 42 1022
24 13:00 東北東 5 10km以上 25 44 1023
24 12:00 東北東 5 10km以上 24 47 1023
24 11:00 6 10km以上 23 53 1024
24 10:00 東北東 6 10km以上 21 60 1024
24 09:00 東北東 5 10km以上 19 64 1024
24 08:00 3 10km以上 17 68 1024
24 07:00 南南東 2 10km以上 16 72 1023
24 06:00 不定 1 10km以上 14 82 1022
24 05:00 不定 1 10km以上 17 68 1022
24 04:00 不定 1 10km以上 15 82 1022
24 03:00 2 10km以上 17 72 1022
24 02:00 不定 1 10km以上 17 72 1022
24 01:00 東南東 2 10km以上 19 64 1022
24 00:00 2 10km以上 19 64 1022
SBBR 260200Z 10003KT CAVOK 17/10 Q1025
SBBR 260100Z VRB01KT CAVOK 16/04 Q1025
SBBR 260000Z 12006KT CAVOK 18/10 Q1025
SBBR 252300Z 09007KT CAVOK 18/10 Q1024
SBBR 252200Z 13010KT CAVOK 20/10 Q1024
SBBR 252100Z 12008KT CAVOK 22/09 Q1023
SBBR 252000Z 11011KT CAVOK 23/09 Q1023
SBBR 251900Z 11011KT 080V150 CAVOK 24/10 Q1022
SBBR 251800Z 13012KT CAVOK 24/10 Q1022
SBBR 251700Z 11012KT 9999 FEW040 24/09 Q1023
SBBR 251600Z 12010KT 070V180 9999 FEW035 24/10 Q1024
SBBR 251500Z 12013KT 9999 FEW035 22/11 Q1025
SBBR 251400Z 10014KT 9999 FEW030 21/11 Q1026
SBBR 251300Z 09011KT CAVOK 20/11 Q1026
SBBR 251200Z 09014KT CAVOK 18/11 Q1026
SBBR 251100Z 06002KT CAVOK 16/11 Q1026
SBBR 251000Z 26001KT CAVOK 13/10 Q1025
SBBR 250900Z VRB02KT CAVOK 13/10 Q1024
SBBR 250800Z 00000KT CAVOK 13/10 Q1023
SBBR 250700Z 13005KT CAVOK 15/11 Q1023
SBBR 250600Z VRB02KT CAVOK 15/11 Q1023
SBBR 250500Z VRB01KT CAVOK 15/12 Q1024
SBBR 250400Z 12006KT CAVOK 17/12 Q1024
SBBR 250300Z 12008KT CAVOK 18/12 Q1024
SBBR 250200Z 10006KT CAVOK 18/12 Q1024
SBBR 250100Z 11005KT CAVOK 19/12 Q1024
SBBR 250000Z 12005KT CAVOK 20/12 Q1024
SBBR 242300Z 13007KT 9999 SCT045 20/12 Q1023
SBBR 242200Z 12007KT 9999 SCT045 21/13 Q1022
SBBR 242100Z 12008KT 9999 SCT045 23/12 Q1022
SBBR 242000Z 13010KT 9999 SCT045 SCT070 25/12 Q1021
SBBR 241900Z 10009KT 9999 SCT045 SCT070 26/12 Q1021
SBBR 241800Z 12011KT 9999 SCT045 SCT070 25/12 Q1021
SBBR 241700Z 07007KT 010V170 9999 SCT045 SCT070 26/12 Q1022
SBBR 241600Z 07009KT 030V100 9999 FEW040 SCT100 25/12 Q1023
SBBR 241500Z 06010KT 020V090 9999 FEW040 SCT100 24/12 Q1023
SBBR 241400Z 09012KT CAVOK 23/13 Q1024
SBBR 241300Z 07011KT CAVOK 21/13 Q1024
SBBR 241200Z 07010KT CAVOK 19/12 Q1024
SBBR 241100Z 09006KT CAVOK 17/11 Q1024
SBBR 241000Z 16003KT 100V200 9999 FEW045 SCT070 16/11 Q1023
SBBR 240900Z VRB01KT 9999 FEW045 SCT070 14/11 Q1022
SBBR 240800Z VRB02KT CAVOK 17/11 Q1022
SBBR 240700Z VRB02KT 9999 FEW045 SCT080 15/12 Q1022
SBBR 240600Z 19004KT 9999 FEW045 SCT080 17/12 Q1022
SBBR 240500Z VRB02KT CAVOK 17/12 Q1022
SBBR 240400Z 11003KT 9999 FEW045 SCT080 19/12 Q1022
SBBR 240300Z 09004KT 9999 SCT045 BKN080 19/12 Q1022